Pagrindinis puslapis
METAR-TAF:

METAR-TAF

Oro uostai :

Surathanis, Tailandas

platuma: 09-07N, ilguma: 099-21E, Aukštis: 10 m

Dabartinis oras

Ataskaita buvo paskelbta 24 minutes, ne 01:00 UTC
Vėjas 2 kt iš Pietų/Pietvakarių
Temperatūra 22°C
Drėgmė 94%
Slėgis 1010 hPa
Matomumas: 8000 m
Mažai debesys ne aukštis 2000 ft

METAR: VTSB 260100Z 21002KT 8000 FEW020 22/21 Q1010

Laikas: 08:24 (01:24 UTC)

Prognozė

Ataskaita buvo paskelbta 2 valandos ir 24 minutes, ne 23:00 UTC
Prognozė galioja nuo 26 metu 00 UTC su 26 metu 24 UTC
Vėjas 5 kt iš Vakarų/Pietvakarių
Matomumas 10 km arba daugiau
Mažai debesys ne aukštis 2000 ft

TAF: VTSB 252300Z 2600/2624 24005KT 9999 FEW020

Orai ataskaitas ir orų prognozės (METAR, TAF).

turimą stotys yra geltonos ir raudonos taškus žemėlapyje.

Perkelti pele per norėdami pamatyti stoties vardą.

Tada spustelėkite, norėdami matyti oro stebėjimo ir prognozės.

Norėdami pakeisti žemėlapį: spustelėkite ant žalios mygtukų su juodo kryžiaus žemyn,; žalią mygtuką su brūkšneliu, jei norite nutolinti; arba žalių rodyklių gretimoms žemėlapius.


METAR-TAF: